sensor_id;sensor_type;location;lat;lon;timestamp;temperature;humidity
71128;SHT30;59249;59.736;30.568;2024-03-29T00:00:43;8.57;64.39
71128;SHT30;59249;59.736;30.568;2024-03-29T00:03:13;8.56;64.78
71128;SHT30;59249;59.736;30.568;2024-03-29T00:05:41;8.49;64.39
71128;SHT30;59249;59.736;30.568;2024-03-29T00:08:10;8.50;64.35
71128;SHT30;59249;59.736;30.568;2024-03-29T00:10:38;8.46;64.37
71128;SHT30;59249;59.736;30.568;2024-03-29T00:13:06;8.42;64.25
71128;SHT30;59249;59.736;30.568;2024-03-29T00:15:33;8.42;64.20
71128;SHT30;59249;59.736;30.568;2024-03-29T00:18:00;8.45;64.42
71128;SHT30;59249;59.736;30.568;2024-03-29T00:20:30;8.40;64.30
71128;SHT30;59249;59.736;30.568;2024-03-29T00:22:59;8.40;64.13
71128;SHT30;59249;59.736;30.568;2024-03-29T00:25:28;8.37;64.25
71128;SHT30;59249;59.736;30.568;2024-03-29T00:27:59;8.36;64.23
71128;SHT30;59249;59.736;30.568;2024-03-29T00:30:32;8.31;64.11
71128;SHT30;59249;59.736;30.568;2024-03-29T00:32:59;8.26;64.19
71128;SHT30;59249;59.736;30.568;2024-03-29T00:35:27;8.09;64.74
71128;SHT30;59249;59.736;30.568;2024-03-29T00:37:57;8.02;64.85
71128;SHT30;59249;59.736;30.568;2024-03-29T00:40:26;7.88;64.84
71128;SHT30;59249;59.736;30.568;2024-03-29T00:42:56;7.78;64.95
71128;SHT30;59249;59.736;30.568;2024-03-29T00:45:23;7.78;65.10
71128;SHT30;59249;59.736;30.568;2024-03-29T00:47:54;7.65;65.17
71128;SHT30;59249;59.736;30.568;2024-03-29T00:50:23;7.57;65.08
71128;SHT30;59249;59.736;30.568;2024-03-29T00:52:51;7.66;65.10
71128;SHT30;59249;59.736;30.568;2024-03-29T00:55:21;7.72;65.20
71128;SHT30;59249;59.736;30.568;2024-03-29T00:57:58;7.73;65.05
71128;SHT30;59249;59.736;30.568;2024-03-29T01:00:25;7.79;65.01
71128;SHT30;59249;59.736;30.568;2024-03-29T01:02:52;7.87;65.00
71128;SHT30;59249;59.736;30.568;2024-03-29T01:05:20;7.86;64.59
71128;SHT30;59249;59.736;30.568;2024-03-29T01:07:48;7.86;64.57
71128;SHT30;59249;59.736;30.568;2024-03-29T01:10:16;7.94;64.37
71128;SHT30;59249;59.736;30.568;2024-03-29T01:12:44;7.91;64.32
71128;SHT30;59249;59.736;30.568;2024-03-29T01:15:14;7.96;63.94
71128;SHT30;59249;59.736;30.568;2024-03-29T01:17:43;7.92;64.06
71128;SHT30;59249;59.736;30.568;2024-03-29T01:20:20;7.97;64.16
71128;SHT30;59249;59.736;30.568;2024-03-29T01:22:50;8.03;63.96
71128;SHT30;59249;59.736;30.568;2024-03-29T01:25:19;8.02;64.57
71128;SHT30;59249;59.736;30.568;2024-03-29T01:27:49;8.10;64.26
71128;SHT30;59249;59.736;30.568;2024-03-29T01:30:26;8.01;64.21
71128;SHT30;59249;59.736;30.568;2024-03-29T01:32:55;8.03;64.28
71128;SHT30;59249;59.736;30.568;2024-03-29T01:35:27;8.07;64.35
71128;SHT30;59249;59.736;30.568;2024-03-29T01:37:55;7.96;64.27
71128;SHT30;59249;59.736;30.568;2024-03-29T01:40:32;8.05;64.36
71128;SHT30;59249;59.736;30.568;2024-03-29T01:43:11;8.04;64.55
71128;SHT30;59249;59.736;30.568;2024-03-29T01:45:54;8.03;64.42
71128;SHT30;59249;59.736;30.568;2024-03-29T01:48:23;8.03;64.54
71128;SHT30;59249;59.736;30.568;2024-03-29T01:50:53;8.01;64.52
71128;SHT30;59249;59.736;30.568;2024-03-29T01:53:26;8.01;64.53
71128;SHT30;59249;59.736;30.568;2024-03-29T01:56:01;7.97;64.41
71128;SHT30;59249;59.736;30.568;2024-03-29T01:58:30;8.02;64.60
71128;SHT30;59249;59.736;30.568;2024-03-29T02:01:01;8.07;64.70
71128;SHT30;59249;59.736;30.568;2024-03-29T02:03:33;8.02;64.60
71128;SHT30;59249;59.736;30.568;2024-03-29T02:06:01;8.09;64.51
71128;SHT30;59249;59.736;30.568;2024-03-29T02:08:31;8.08;64.72
71128;SHT30;59249;59.736;30.568;2024-03-29T02:10:59;7.98;64.80
71128;SHT30;59249;59.736;30.568;2024-03-29T02:13:31;7.98;64.85
71128;SHT30;59249;59.736;30.568;2024-03-29T02:16:09;8.01;64.90
71128;SHT30;59249;59.736;30.568;2024-03-29T02:18:38;8.02;65.01
71128;SHT30;59249;59.736;30.568;2024-03-29T02:21:09;8.05;65.01
71128;SHT30;59249;59.736;30.568;2024-03-29T02:23:46;8.03;65.07
71128;SHT30;59249;59.736;30.568;2024-03-29T02:26:24;7.91;65.20
71128;SHT30;59249;59.736;30.568;2024-03-29T02:28:57;7.98;65.24
71128;SHT30;59249;59.736;30.568;2024-03-29T02:31:28;7.95;65.26
71128;SHT30;59249;59.736;30.568;2024-03-29T02:33:58;8.01;65.42
71128;SHT30;59249;59.736;30.568;2024-03-29T02:36:27;7.94;65.63
71128;SHT30;59249;59.736;30.568;2024-03-29T02:38:56;7.98;65.74
71128;SHT30;59249;59.736;30.568;2024-03-29T02:41:28;8.01;65.66
71128;SHT30;59249;59.736;30.568;2024-03-29T02:43:59;7.96;65.84
71128;SHT30;59249;59.736;30.568;2024-03-29T02:46:28;7.93;65.82
71128;SHT30;59249;59.736;30.568;2024-03-29T02:48:55;7.98;66.06
71128;SHT30;59249;59.736;30.568;2024-03-29T02:51:32;8.03;66.12
71128;SHT30;59249;59.736;30.568;2024-03-29T02:54:14;8.05;66.08
71128;SHT30;59249;59.736;30.568;2024-03-29T02:56:45;8.06;66.45
71128;SHT30;59249;59.736;30.568;2024-03-29T02:59:17;8.07;66.30
71128;SHT30;59249;59.736;30.568;2024-03-29T03:01:46;8.02;66.32
71128;SHT30;59249;59.736;30.568;2024-03-29T03:04:21;8.06;66.56
71128;SHT30;59249;59.736;30.568;2024-03-29T03:06:48;8.01;66.67
71128;SHT30;59249;59.736;30.568;2024-03-29T03:09:14;8.10;66.87
71128;SHT30;59249;59.736;30.568;2024-03-29T03:12:02;8.05;66.82
71128;SHT30;59249;59.736;30.568;2024-03-29T03:14:32;8.07;66.92
71128;SHT30;59249;59.736;30.568;2024-03-29T03:17:05;8.05;67.15
71128;SHT30;59249;59.736;30.568;2024-03-29T03:19:39;8.08;67.06
71128;SHT30;59249;59.736;30.568;2024-03-29T03:22:18;8.07;67.24
71128;SHT30;59249;59.736;30.568;2024-03-29T03:24:54;8.10;67.17
71128;SHT30;59249;59.736;30.568;2024-03-29T03:27:33;8.12;67.12
71128;SHT30;59249;59.736;30.568;2024-03-29T03:30:00;8.07;67.07
71128;SHT30;59249;59.736;30.568;2024-03-29T03:32:35;8.14;67.26
71128;SHT30;59249;59.736;30.568;2024-03-29T03:35:08;8.03;67.44
71128;SHT30;59249;59.736;30.568;2024-03-29T03:37:35;8.12;67.56
71128;SHT30;59249;59.736;30.568;2024-03-29T03:40:02;8.04;67.62
71128;SHT30;59249;59.736;30.568;2024-03-29T03:42:31;8.12;67.70
71128;SHT30;59249;59.736;30.568;2024-03-29T03:45:02;8.17;67.64
71128;SHT30;59249;59.736;30.568;2024-03-29T03:47:35;8.18;67.70
71128;SHT30;59249;59.736;30.568;2024-03-29T03:50:02;8.17;67.75
71128;SHT30;59249;59.736;30.568;2024-03-29T03:52:29;8.14;67.95
71128;SHT30;59249;59.736;30.568;2024-03-29T03:54:56;8.19;67.98
71128;SHT30;59249;59.736;30.568;2024-03-29T03:57:23;8.14;68.15
71128;SHT30;59249;59.736;30.568;2024-03-29T03:59:50;8.20;68.15
71128;SHT30;59249;59.736;30.568;2024-03-29T04:02:19;8.12;67.85
71128;SHT30;59249;59.736;30.568;2024-03-29T04:05:09;8.25;68.09
71128;SHT30;59249;59.736;30.568;2024-03-29T04:07:36;8.24;68.09
71128;SHT30;59249;59.736;30.568;2024-03-29T04:10:12;8.20;68.02
71128;SHT30;59249;59.736;30.568;2024-03-29T04:12:46;8.25;68.14
71128;SHT30;59249;59.736;30.568;2024-03-29T04:15:13;8.27;68.26
71128;SHT30;59249;59.736;30.568;2024-03-29T04:17:46;8.31;68.32
71128;SHT30;59249;59.736;30.568;2024-03-29T04:20:20;8.28;68.52
71128;SHT30;59249;59.736;30.568;2024-03-29T04:22:47;8.33;68.50
71128;SHT30;59249;59.736;30.568;2024-03-29T04:25:16;8.31;68.24
71128;SHT30;59249;59.736;30.568;2024-03-29T04:27:49;8.32;68.68
71128;SHT30;59249;59.736;30.568;2024-03-29T04:30:16;8.35;68.38
71128;SHT30;59249;59.736;30.568;2024-03-29T04:32:46;8.37;68.55
71128;SHT30;59249;59.736;30.568;2024-03-29T04:35:14;8.41;68.58
71128;SHT30;59249;59.736;30.568;2024-03-29T04:37:42;8.33;68.65
71128;SHT30;59249;59.736;30.568;2024-03-29T04:40:10;8.37;68.66
71128;SHT30;59249;59.736;30.568;2024-03-29T04:42:38;8.38;68.75
71128;SHT30;59249;59.736;30.568;2024-03-29T04:45:06;8.38;68.77
71128;SHT30;59249;59.736;30.568;2024-03-29T04:47:33;8.49;68.55
71128;SHT30;59249;59.736;30.568;2024-03-29T04:50:02;8.51;68.83
71128;SHT30;59249;59.736;30.568;2024-03-29T04:52:31;8.52;68.76
71128;SHT30;59249;59.736;30.568;2024-03-29T04:55:01;8.51;68.60
71128;SHT30;59249;59.736;30.568;2024-03-29T04:57:30;8.48;68.78
71128;SHT30;59249;59.736;30.568;2024-03-29T05:00:05;8.56;68.81
71128;SHT30;59249;59.736;30.568;2024-03-29T05:02:34;8.62;68.71
71128;SHT30;59249;59.736;30.568;2024-03-29T05:05:08;8.62;69.00
71128;SHT30;59249;59.736;30.568;2024-03-29T05:07:49;8.65;68.98
71128;SHT30;59249;59.736;30.568;2024-03-29T05:10:18;8.64;68.91
71128;SHT30;59249;59.736;30.568;2024-03-29T05:12:49;8.68;68.92
71128;SHT30;59249;59.736;30.568;2024-03-29T05:15:17;8.75;68.81
71128;SHT30;59249;59.736;30.568;2024-03-29T05:17:44;8.74;68.98
71128;SHT30;59249;59.736;30.568;2024-03-29T05:20:13;8.77;68.78
71128;SHT30;59249;59.736;30.568;2024-03-29T05:22:41;8.84;68.98
71128;SHT30;59249;59.736;30.568;2024-03-29T05:25:08;8.86;68.98
71128;SHT30;59249;59.736;30.568;2024-03-29T05:27:35;8.93;68.99
71128;SHT30;59249;59.736;30.568;2024-03-29T05:30:04;8.89;69.05
71128;SHT30;59249;59.736;30.568;2024-03-29T05:32:32;8.96;69.25
71128;SHT30;59249;59.736;30.568;2024-03-29T05:34:59;9.00;69.13
71128;SHT30;59249;59.736;30.568;2024-03-29T05:37:27;9.16;68.85
71128;SHT30;59249;59.736;30.568;2024-03-29T05:39:54;9.22;68.89
71128;SHT30;59249;59.736;30.568;2024-03-29T05:42:31;9.28;68.97
71128;SHT30;59249;59.736;30.568;2024-03-29T05:44:59;9.40;68.63
71128;SHT30;59249;59.736;30.568;2024-03-29T05:47:26;9.40;68.53
71128;SHT30;59249;59.736;30.568;2024-03-29T05:49:54;9.54;68.30
71128;SHT30;59249;59.736;30.568;2024-03-29T05:52:20;9.62;67.98
71128;SHT30;59249;59.736;30.568;2024-03-29T05:54:51;9.68;67.79
71128;SHT30;59249;59.736;30.568;2024-03-29T05:57:22;9.73;67.71
71128;SHT30;59249;59.736;30.568;2024-03-29T05:59:54;9.89;67.71
71128;SHT30;59249;59.736;30.568;2024-03-29T06:02:21;9.90;67.73
71128;SHT30;59249;59.736;30.568;2024-03-29T06:04:48;10.04;67.64
71128;SHT30;59249;59.736;30.568;2024-03-29T06:07:15;10.08;67.40
71128;SHT30;59249;59.736;30.568;2024-03-29T06:09:42;10.14;67.61
71128;SHT30;59249;59.736;30.568;2024-03-29T06:12:11;10.15;67.41
71128;SHT30;59249;59.736;30.568;2024-03-29T06:14:38;10.18;67.48
71128;SHT30;59249;59.736;30.568;2024-03-29T06:17:23;10.20;67.37
71128;SHT30;59249;59.736;30.568;2024-03-29T06:19:51;10.25;67.31
71128;SHT30;59249;59.736;30.568;2024-03-29T06:22:23;10.27;67.31
71128;SHT30;59249;59.736;30.568;2024-03-29T06:24:52;10.32;67.18
71128;SHT30;59249;59.736;30.568;2024-03-29T06:27:21;10.32;67.28
71128;SHT30;59249;59.736;30.568;2024-03-29T06:29:50;10.41;67.36
71128;SHT30;59249;59.736;30.568;2024-03-29T06:32:17;10.45;67.29
71128;SHT30;59249;59.736;30.568;2024-03-29T06:34:45;10.46;67.23
71128;SHT30;59249;59.736;30.568;2024-03-29T06:37:13;10.49;67.22
71128;SHT30;59249;59.736;30.568;2024-03-29T06:39:41;10.61;67.29
71128;SHT30;59249;59.736;30.568;2024-03-29T06:42:11;10.55;67.17
71128;SHT30;59249;59.736;30.568;2024-03-29T06:44:39;10.57;67.17
71128;SHT30;59249;59.736;30.568;2024-03-29T06:47:07;10.55;67.41
71128;SHT30;59249;59.736;30.568;2024-03-29T06:49:34;10.64;67.37
71128;SHT30;59249;59.736;30.568;2024-03-29T06:52:02;10.70;67.19
71128;SHT30;59249;59.736;30.568;2024-03-29T06:54:29;10.79;67.09
71128;SHT30;59249;59.736;30.568;2024-03-29T06:57:07;11.03;66.42
71128;SHT30;59249;59.736;30.568;2024-03-29T06:59:38;11.07;66.63
71128;SHT30;59249;59.736;30.568;2024-03-29T07:02:06;11.32;66.32
71128;SHT30;59249;59.736;30.568;2024-03-29T07:04:33;11.38;66.13
71128;SHT30;59249;59.736;30.568;2024-03-29T07:07:04;11.59;66.13
71128;SHT30;59249;59.736;30.568;2024-03-29T07:09:31;11.73;66.06
71128;SHT30;59249;59.736;30.568;2024-03-29T07:11:58;11.81;65.59
71128;SHT30;59249;59.736;30.568;2024-03-29T07:14:28;11.78;65.61
71128;SHT30;59249;59.736;30.568;2024-03-29T07:16:57;11.75;65.76
71128;SHT30;59249;59.736;30.568;2024-03-29T07:19:25;11.74;65.69
71128;SHT30;59249;59.736;30.568;2024-03-29T07:22:05;11.77;65.78
71128;SHT30;59249;59.736;30.568;2024-03-29T07:24:44;11.83;65.35
71128;SHT30;59249;59.736;30.568;2024-03-29T07:27:19;11.88;65.37
71128;SHT30;59249;59.736;30.568;2024-03-29T07:29:49;11.99;65.37
71128;SHT30;59249;59.736;30.568;2024-03-29T07:32:17;12.11;64.88
71128;SHT30;59249;59.736;30.568;2024-03-29T07:34:46;12.10;65.01
71128;SHT30;59249;59.736;30.568;2024-03-29T07:37:15;12.16;65.06
71128;SHT30;59249;59.736;30.568;2024-03-29T07:39:43;12.13;65.02
71128;SHT30;59249;59.736;30.568;2024-03-29T07:42:12;12.24;64.95
71128;SHT30;59249;59.736;30.568;2024-03-29T07:44:39;12.33;64.46
71128;SHT30;59249;59.736;30.568;2024-03-29T07:47:25;12.29;64.44
71128;SHT30;59249;59.736;30.568;2024-03-29T07:49:56;12.41;64.23
71128;SHT30;59249;59.736;30.568;2024-03-29T07:52:23;12.43;64.28
71128;SHT30;59249;59.736;30.568;2024-03-29T07:54:51;12.52;64.00
71128;SHT30;59249;59.736;30.568;2024-03-29T07:57:17;12.55;63.94
71128;SHT30;59249;59.736;30.568;2024-03-29T07:59:52;12.67;63.97
71128;SHT30;59249;59.736;30.568;2024-03-29T08:02:20;12.79;63.68
71128;SHT30;59249;59.736;30.568;2024-03-29T08:04:52;12.76;63.38
71128;SHT30;59249;59.736;30.568;2024-03-29T08:07:19;12.79;63.61
71128;SHT30;59249;59.736;30.568;2024-03-29T08:09:46;12.90;63.55
71128;SHT30;59249;59.736;30.568;2024-03-29T08:12:13;12.90;63.55
71128;SHT30;59249;59.736;30.568;2024-03-29T08:14:44;12.95;63.47
71128;SHT30;59249;59.736;30.568;2024-03-29T08:17:14;13.06;63.49
71128;SHT30;59249;59.736;30.568;2024-03-29T08:19:41;13.08;62.97
71128;SHT30;59249;59.736;30.568;2024-03-29T08:22:13;13.05;63.31
71128;SHT30;59249;59.736;30.568;2024-03-29T08:24:40;13.08;63.06
71128;SHT30;59249;59.736;30.568;2024-03-29T08:27:08;13.11;63.08
71128;SHT30;59249;59.736;30.568;2024-03-29T08:29:35;13.18;62.82
71128;SHT30;59249;59.736;30.568;2024-03-29T08:32:03;13.18;62.82
71128;SHT30;59249;59.736;30.568;2024-03-29T08:34:30;13.08;63.24
71128;SHT30;59249;59.736;30.568;2024-03-29T08:37:01;12.96;63.21
71128;SHT30;59249;59.736;30.568;2024-03-29T08:39:31;12.92;63.04
71128;SHT30;59249;59.736;30.568;2024-03-29T08:41:58;12.96;63.52
71128;SHT30;59249;59.736;30.568;2024-03-29T08:44:27;12.84;63.92
71128;SHT30;59249;59.736;30.568;2024-03-29T08:46:54;12.93;64.12
71128;SHT30;59249;59.736;30.568;2024-03-29T08:49:23;12.89;63.83
71128;SHT30;59249;59.736;30.568;2024-03-29T08:51:52;12.86;63.68
71128;SHT30;59249;59.736;30.568;2024-03-29T08:54:20;12.89;63.68
71128;SHT30;59249;59.736;30.568;2024-03-29T08:56:48;12.96;63.75
71128;SHT30;59249;59.736;30.568;2024-03-29T08:59:15;13.12;63.67
71128;SHT30;59249;59.736;30.568;2024-03-29T09:01:46;13.34;63.34
71128;SHT30;59249;59.736;30.568;2024-03-29T09:04:18;13.52;62.83
71128;SHT30;59249;59.736;30.568;2024-03-29T09:06:47;13.49;62.69
71128;SHT30;59249;59.736;30.568;2024-03-29T09:09:14;13.59;62.68
71128;SHT30;59249;59.736;30.568;2024-03-29T09:11:43;13.55;62.59
71128;SHT30;59249;59.736;30.568;2024-03-29T09:14:11;13.45;62.39
71128;SHT30;59249;59.736;30.568;2024-03-29T09:16:39;13.48;62.45
71128;SHT30;59249;59.736;30.568;2024-03-29T09:19:06;13.42;62.56
71128;SHT30;59249;59.736;30.568;2024-03-29T09:21:35;13.46;62.77
71128;SHT30;59249;59.736;30.568;2024-03-29T09:24:02;13.46;62.81
71128;SHT30;59249;59.736;30.568;2024-03-29T09:26:28;13.50;63.08
71128;SHT30;59249;59.736;30.568;2024-03-29T09:28:56;13.59;62.56
71128;SHT30;59249;59.736;30.568;2024-03-29T09:31:24;13.74;62.31
71128;SHT30;59249;59.736;30.568;2024-03-29T09:33:51;13.91;62.19
71128;SHT30;59249;59.736;30.568;2024-03-29T09:36:25;14.02;62.02
71128;SHT30;59249;59.736;30.568;2024-03-29T09:38:52;14.13;61.71
71128;SHT30;59249;59.736;30.568;2024-03-29T09:41:19;14.18;61.31
71128;SHT30;59249;59.736;30.568;2024-03-29T09:43:48;14.02;61.73
71128;SHT30;59249;59.736;30.568;2024-03-29T09:46:17;13.97;61.71
71128;SHT30;59249;59.736;30.568;2024-03-29T09:48:45;14.03;61.97
71128;SHT30;59249;59.736;30.568;2024-03-29T09:51:13;14.26;61.88
71128;SHT30;59249;59.736;30.568;2024-03-29T09:53:42;14.34;61.59
71128;SHT30;59249;59.736;30.568;2024-03-29T09:56:13;14.38;61.29
71128;SHT30;59249;59.736;30.568;2024-03-29T09:58:43;14.29;61.29
71128;SHT30;59249;59.736;30.568;2024-03-29T10:01:10;14.32;61.48
71128;SHT30;59249;59.736;30.568;2024-03-29T10:03:40;14.37;61.48
71128;SHT30;59249;59.736;30.568;2024-03-29T10:06:10;14.30;61.31
71128;SHT30;59249;59.736;30.568;2024-03-29T10:08:41;14.41;61.18
71128;SHT30;59249;59.736;30.568;2024-03-29T10:11:09;14.45;61.29
71128;SHT30;59249;59.736;30.568;2024-03-29T10:13:43;14.61;61.28
71128;SHT30;59249;59.736;30.568;2024-03-29T10:16:12;14.83;61.24
71128;SHT30;59249;59.736;30.568;2024-03-29T10:18:41;14.90;60.69
71128;SHT30;59249;59.736;30.568;2024-03-29T10:21:13;15.00;60.33
71128;SHT30;59249;59.736;30.568;2024-03-29T10:23:41;15.08;60.12
71128;SHT30;59249;59.736;30.568;2024-03-29T10:26:09;15.07;60.11
71128;SHT30;59249;59.736;30.568;2024-03-29T10:28:37;15.04;60.65
71128;SHT30;59249;59.736;30.568;2024-03-29T10:31:05;15.07;60.49
71128;SHT30;59249;59.736;30.568;2024-03-29T10:33:34;15.17;60.31
71128;SHT30;59249;59.736;30.568;2024-03-29T10:36:03;15.27;60.23
71128;SHT30;59249;59.736;30.568;2024-03-29T10:38:36;15.22;60.46
71128;SHT30;59249;59.736;30.568;2024-03-29T10:41:04;15.25;60.50
71128;SHT30;59249;59.736;30.568;2024-03-29T10:43:33;15.35;60.19
71128;SHT30;59249;59.736;30.568;2024-03-29T10:46:00;15.44;59.85
71128;SHT30;59249;59.736;30.568;2024-03-29T10:48:28;15.63;60.04
71128;SHT30;59249;59.736;30.568;2024-03-29T10:50:55;15.83;59.66
71128;SHT30;59249;59.736;30.568;2024-03-29T10:53:26;15.91;59.27
71128;SHT30;59249;59.736;30.568;2024-03-29T10:55:58;16.00;59.07
71128;SHT30;59249;59.736;30.568;2024-03-29T10:58:35;16.17;58.44
71128;SHT30;59249;59.736;30.568;2024-03-29T11:01:05;16.32;58.52
71128;SHT30;59249;59.736;30.568;2024-03-29T11:03:42;16.42;57.92
71128;SHT30;59249;59.736;30.568;2024-03-29T11:06:13;16.66;57.72
71128;SHT30;59249;59.736;30.568;2024-03-29T11:08:43;16.95;57.57
71128;SHT30;59249;59.736;30.568;2024-03-29T11:11:16;17.01;57.10
71128;SHT30;59249;59.736;30.568;2024-03-29T11:13:49;17.09;57.26
71128;SHT30;59249;59.736;30.568;2024-03-29T11:16:16;17.20;56.85
71128;SHT30;59249;59.736;30.568;2024-03-29T11:18:49;17.17;56.82
71128;SHT30;59249;59.736;30.568;2024-03-29T11:21:17;17.20;56.94
71128;SHT30;59249;59.736;30.568;2024-03-29T11:23:48;17.30;56.90
71128;SHT30;59249;59.736;30.568;2024-03-29T11:26:18;17.41;56.61
71128;SHT30;59249;59.736;30.568;2024-03-29T11:28:49;17.57;56.35
71128;SHT30;59249;59.736;30.568;2024-03-29T11:31:21;17.68;56.62
71128;SHT30;59249;59.736;30.568;2024-03-29T11:33:49;17.83;55.89
71128;SHT30;59249;59.736;30.568;2024-03-29T11:36:21;17.72;56.35
71128;SHT30;59249;59.736;30.568;2024-03-29T11:38:54;17.88;55.75
71128;SHT30;59249;59.736;30.568;2024-03-29T11:41:24;17.93;55.47
71128;SHT30;59249;59.736;30.568;2024-03-29T11:43:54;17.99;55.78
71128;SHT30;59249;59.736;30.568;2024-03-29T11:46:23;17.97;55.87
71128;SHT30;59249;59.736;30.568;2024-03-29T11:48:51;18.06;55.74
71128;SHT30;59249;59.736;30.568;2024-03-29T11:51:22;17.88;55.86
71128;SHT30;59249;59.736;30.568;2024-03-29T11:53:51;17.89;56.15
71128;SHT30;59249;59.736;30.568;2024-03-29T11:56:19;17.83;55.91
71128;SHT30;59249;59.736;30.568;2024-03-29T11:58:50;17.80;56.13
71128;SHT30;59249;59.736;30.568;2024-03-29T12:01:18;17.72;56.17
71128;SHT30;59249;59.736;30.568;2024-03-29T12:03:47;17.65;56.10
71128;SHT30;59249;59.736;30.568;2024-03-29T12:06:15;17.36;56.82
71128;SHT30;59249;59.736;30.568;2024-03-29T12:08:43;17.23;57.05
71128;SHT30;59249;59.736;30.568;2024-03-29T12:11:11;17.12;57.13
71128;SHT30;59249;59.736;30.568;2024-03-29T12:13:38;16.96;57.72
71128;SHT30;59249;59.736;30.568;2024-03-29T12:16:08;17.03;57.67
71128;SHT30;59249;59.736;30.568;2024-03-29T12:18:35;17.14;57.57
71128;SHT30;59249;59.736;30.568;2024-03-29T12:21:03;17.26;57.46
71128;SHT30;59249;59.736;30.568;2024-03-29T12:23:32;17.38;57.18
71128;SHT30;59249;59.736;30.568;2024-03-29T12:26:01;17.56;57.15
71128;SHT30;59249;59.736;30.568;2024-03-29T12:28:29;17.68;56.53
71128;SHT30;59249;59.736;30.568;2024-03-29T12:31:00;17.77;56.21
71128;SHT30;59249;59.736;30.568;2024-03-29T12:33:29;17.79;56.09
71128;SHT30;59249;59.736;30.568;2024-03-29T12:35:58;17.71;56.26
71128;SHT30;59249;59.736;30.568;2024-03-29T12:38:27;17.77;55.91
71128;SHT30;59249;59.736;30.568;2024-03-29T12:40:59;17.86;55.60
71128;SHT30;59249;59.736;30.568;2024-03-29T12:43:29;17.80;55.55
71128;SHT30;59249;59.736;30.568;2024-03-29T12:45:57;17.83;55.75
71128;SHT30;59249;59.736;30.568;2024-03-29T12:48:24;17.83;55.54
71128;SHT30;59249;59.736;30.568;2024-03-29T12:50:54;17.82;55.63
71128;SHT30;59249;59.736;30.568;2024-03-29T12:53:22;17.77;56.16
71128;SHT30;59249;59.736;30.568;2024-03-29T12:55:49;17.87;56.38
71128;SHT30;59249;59.736;30.568;2024-03-29T12:58:18;17.83;56.30
71128;SHT30;59249;59.736;30.568;2024-03-29T13:00:49;17.77;56.61
71128;SHT30;59249;59.736;30.568;2024-03-29T13:03:16;17.71;56.82
71128;SHT30;59249;59.736;30.568;2024-03-29T13:05:47;17.77;56.74
71128;SHT30;59249;59.736;30.568;2024-03-29T13:08:32;17.89;56.55
71128;SHT30;59249;59.736;30.568;2024-03-29T13:10:59;17.87;56.62
71128;SHT30;59249;59.736;30.568;2024-03-29T13:13:26;17.78;56.75
71128;SHT30;59249;59.736;30.568;2024-03-29T13:15:55;17.73;56.97
71128;SHT30;59249;59.736;30.568;2024-03-29T13:18:22;17.52;56.97
71128;SHT30;59249;59.736;30.568;2024-03-29T13:21:04;17.39;57.11
71128;SHT30;59249;59.736;30.568;2024-03-29T13:23:42;17.39;57.67
71128;SHT30;59249;59.736;30.568;2024-03-29T13:26:08;17.42;57.58
71128;SHT30;59249;59.736;30.568;2024-03-29T13:28:35;17.32;57.44
71128;SHT30;59249;59.736;30.568;2024-03-29T13:31:02;17.35;57.45
71128;SHT30;59249;59.736;30.568;2024-03-29T13:33:41;17.20;57.51
71128;SHT30;59249;59.736;30.568;2024-03-29T13:36:12;17.12;58.00
71128;SHT30;59249;59.736;30.568;2024-03-29T13:38:42;16.93;58.27
71128;SHT30;59249;59.736;30.568;2024-03-29T13:41:10;16.97;58.65
71128;SHT30;59249;59.736;30.568;2024-03-29T13:43:40;16.76;59.01
71128;SHT30;59249;59.736;30.568;2024-03-29T13:46:09;16.68;59.16
71128;SHT30;59249;59.736;30.568;2024-03-29T13:48:39;16.66;59.40
71128;SHT30;59249;59.736;30.568;2024-03-29T13:51:09;16.53;59.70
71128;SHT30;59249;59.736;30.568;2024-03-29T13:53:36;16.47;59.87
71128;SHT30;59249;59.736;30.568;2024-03-29T13:56:05;16.23;60.26
71128;SHT30;59249;59.736;30.568;2024-03-29T13:58:44;16.21;60.10
71128;SHT30;59249;59.736;30.568;2024-03-29T14:01:12;15.97;60.73
71128;SHT30;59249;59.736;30.568;2024-03-29T14:03:46;15.86;61.01
71128;SHT30;59249;59.736;30.568;2024-03-29T14:06:23;15.74;61.46
71128;SHT30;59249;59.736;30.568;2024-03-29T14:09:01;15.55;61.75
71128;SHT30;59249;59.736;30.568;2024-03-29T14:11:31;15.40;62.16
71128;SHT30;59249;59.736;30.568;2024-03-29T14:13:58;15.36;62.25
71128;SHT30;59249;59.736;30.568;2024-03-29T14:16:29;15.16;62.89
71128;SHT30;59249;59.736;30.568;2024-03-29T14:18:56;15.09;62.88
71128;SHT30;59249;59.736;30.568;2024-03-29T14:21:23;14.81;63.27
71128;SHT30;59249;59.736;30.568;2024-03-29T14:23:59;14.67;63.98
71128;SHT30;59249;59.736;30.568;2024-03-29T14:26:26;14.48;64.39
71128;SHT30;59249;59.736;30.568;2024-03-29T14:28:54;14.32;64.53
71128;SHT30;59249;59.736;30.568;2024-03-29T14:31:22;14.29;64.92
71128;SHT30;59249;59.736;30.568;2024-03-29T14:33:49;14.27;64.77
71128;SHT30;59249;59.736;30.568;2024-03-29T14:36:18;14.25;65.11
71128;SHT30;59249;59.736;30.568;2024-03-29T14:38:46;14.03;65.46
71128;SHT30;59249;59.736;30.568;2024-03-29T14:41:17;13.86;66.18
71128;SHT30;59249;59.736;30.568;2024-03-29T14:43:48;13.68;67.34
71128;SHT30;59249;59.736;30.568;2024-03-29T14:46:23;13.56;68.17
71128;SHT30;59249;59.736;30.568;2024-03-29T14:48:53;13.30;69.08
71128;SHT30;59249;59.736;30.568;2024-03-29T14:51:25;13.07;70.19
71128;SHT30;59249;59.736;30.568;2024-03-29T14:53:59;12.84;71.63
71128;SHT30;59249;59.736;30.568;2024-03-29T14:56:29;12.71;72.71
71128;SHT30;59249;59.736;30.568;2024-03-29T14:59:01;12.54;73.80
71128;SHT30;59249;59.736;30.568;2024-03-29T15:01:30;12.23;75.22
71128;SHT30;59249;59.736;30.568;2024-03-29T15:04:12;12.12;76.48
71128;SHT30;59249;59.736;30.568;2024-03-29T15:06:41;11.93;77.55
71128;SHT30;59249;59.736;30.568;2024-03-29T15:09:15;11.83;79.05
71128;SHT30;59249;59.736;30.568;2024-03-29T15:11:52;11.78;79.04
71128;SHT30;59249;59.736;30.568;2024-03-29T15:14:25;11.55;80.55
71128;SHT30;59249;59.736;30.568;2024-03-29T15:16:56;11.41;81.58
71128;SHT30;59249;59.736;30.568;2024-03-29T15:19:24;11.37;81.81
71128;SHT30;59249;59.736;30.568;2024-03-29T15:21:53;11.43;80.92
71128;SHT30;59249;59.736;30.568;2024-03-29T15:24:22;11.31;81.71
71128;SHT30;59249;59.736;30.568;2024-03-29T15:26:49;11.21;82.87
71128;SHT30;59249;59.736;30.568;2024-03-29T15:29:19;11.07;83.24
71128;SHT30;59249;59.736;30.568;2024-03-29T15:31:46;10.95;82.98
71128;SHT30;59249;59.736;30.568;2024-03-29T15:34:15;10.94;83.19
71128;SHT30;59249;59.736;30.568;2024-03-29T15:36:44;10.87;84.57
71128;SHT30;59249;59.736;30.568;2024-03-29T15:39:12;10.86;85.17